RJSF/FKS METAR and TAF weather

Enter ICAO airport designator
Station Type Date Time Source
RJSF METAR 2021/10/20 06:00 UTC NOAA

RJSF 200600Z 30011KT 250V340 9999 FEW020 SCT030 BKN040 11/08 Q1006


Station Type Date Time Source
RJSF Decoded METAR 2021/10/20 06:00 UTC NOAA

Fukushima Airport, Japan (RJSF) 37-14N 140-26E 375M
Oct 20, 2021 - 02:00 AM EDT / 2021.10.20 0600 UTC
Wind: from the WNW (300 degrees) at 13 MPH (11 KT) (direction variable):0
Visibility: greater than 7 mile(s):0
Sky conditions: mostly cloudy
Temperature: 51 F (11 C)
Dew Point: 46 F (8 C)
Relative Humidity: 81%
Pressure (altimeter): 29.71 in. Hg (1006 hPa)
ob: RJSF 200600Z 30011KT 250V340 9999 FEW020 SCT030 BKN040 11/08 Q1006
cycle: 6

Station Type Date Time Source
RJSF TAF 2021/10/20 06:30 UTC NOAA

TAF RJSF 200507Z 2006/2112 32010KT 9999 FEW020 BKN040

Example: see airport list